Time;durP1;ratioP1;P1;durP2;ratioP2;P2;SDS_P1;SDS_P2;PMS_P1;PMS_P2;Temp;Humidity;BMP_temperature;BMP_pressure;BME280_temperature;BME280_humidity;BME280_pressure;Samples;Min_cycle;Max_cycle;Signal;HPM_P1;HPM_P2
2021/01/04 00:03:01;;;;;;;34.50;19.73;;;1.20;99.90;;;;;;5050980;28;20609;-73
2021/01/04 00:05:59;;;;;;;34.13;20.37;;;1.20;99.90;;;;;;5052182;28;20264;-73
2021/01/04 00:08:46;;;;;;;32.13;19.90;;;1.20;99.90;;;;;;5018537;28;20194;-73
2021/01/04 00:11:36;;;;;;;32.47;19.80;;;1.20;99.90;;;;;;5051891;28;20202;-73
2021/01/04 00:14:30;;;;;;;32.07;19.23;;;1.20;99.90;;;;;;5052050;28;20208;-73
2021/01/04 00:17:11;;;;;;;29.63;18.93;;;1.20;99.90;;;;;;5051911;28;20208;-74
2021/01/04 00:19:52;;;;;;;35.50;20.33;;;1.20;99.90;;;;;;5052137;28;20173;-73
2021/01/04 00:22:43;;;;;;;35.00;21.17;;;1.10;99.90;;;;;;5052144;28;20204;-71
2021/01/04 00:25:29;;;;;;;30.03;19.60;;;1.10;99.90;;;;;;5051976;28;20228;-73
2021/01/04 00:28:07;;;;;;;34.37;19.60;;;1.10;99.90;;;;;;5056104;28;20659;-73
2021/01/04 00:30:51;;;;;;;34.90;19.53;;;1.10;99.90;;;;;;5055855;28;20193;-73
2021/01/04 00:33:34;;;;;;;33.23;19.67;;;1.00;99.90;;;;;;5055962;28;20188;-73
2021/01/04 00:36:10;;;;;;;37.33;20.93;;;0.90;99.90;;;;;;5056168;28;20174;-72
2021/01/04 00:39:08;;;;;;;38.57;20.67;;;0.80;99.90;;;;;;5052194;28;20181;-72
2021/01/04 00:41:58;;;;;;;32.27;18.70;;;0.80;99.90;;;;;;5024967;28;20240;-72
2021/01/04 00:44:42;;;;;;;36.90;21.43;;;0.80;99.90;;;;;;5055420;28;20198;-73
2021/01/04 00:47:28;;;;;;;34.20;20.67;;;0.80;99.90;;;;;;5050280;28;20173;-73
2021/01/04 00:50:05;;;;;;;30.00;19.07;;;0.80;99.90;;;;;;5055394;28;20174;-73
2021/01/04 00:53:07;;;;;;;34.17;20.43;;;0.90;99.90;;;;;;5055687;28;20651;-72
2021/01/04 00:55:42;;;;;;;32.63;20.20;;;1.00;99.90;;;;;;5038460;28;20249;-73
2021/01/04 00:58:29;;;;;;;35.23;21.27;;;1.00;99.90;;;;;;5051842;28;20170;-73
2021/01/04 01:01:07;;;;;;;34.17;20.20;;;1.00;99.90;;;;;;5042949;28;20635;-73
2021/01/04 01:04:10;;;;;;;35.07;20.17;;;1.00;99.90;;;;;;5040314;28;20243;-73
2021/01/04 01:07:02;;;;;;;29.70;18.43;;;1.00;99.90;;;;;;5056012;28;20173;-73
2021/01/04 01:09:32;;;;;;;33.47;19.37;;;1.00;99.90;;;;;;5032066;28;20248;-73
2021/01/04 01:12:22;;;;;;;34.80;19.30;;;0.90;99.90;;;;;;5055246;28;20198;-73
2021/01/04 01:14:57;;;;;;;32.57;19.37;;;0.90;99.90;;;;;;5055192;28;20257;-73
2021/01/04 01:17:47;;;;;;;31.40;19.87;;;1.00;99.90;;;;;;5055172;28;20175;-73
2021/01/04 01:20:18;;;;;;;33.00;20.87;;;0.90;99.90;;;;;;5054048;28;20173;-73
2021/01/04 01:22:44;;;;;;;33.87;19.73;;;0.90;99.90;;;;;;5055122;28;20641;-73
2021/01/04 01:25:17;;;;;;;35.97;21.27;;;0.90;99.90;;;;;;5053862;28;20169;-73
2021/01/04 01:28:12;;;;;;;32.83;19.53;;;1.00;99.90;;;;;;5054936;28;20172;-73
2021/01/04 01:30:41;;;;;;;34.23;19.83;;;1.00;99.90;;;;;;5054900;28;20198;-74
2021/01/04 01:33:19;;;;;;;32.63;20.37;;;1.10;99.90;;;;;;5054892;28;20189;-74
2021/01/04 01:36:03;;;;;;;32.90;20.77;;;1.10;99.90;;;;;;5054799;28;20656;-73
2021/01/04 01:38:41;;;;;;;36.73;21.47;;;1.20;99.90;;;;;;5054199;28;20689;-74
2021/01/04 01:41:16;;;;;;;34.33;21.07;;;1.20;99.90;;;;;;5053350;28;20197;-74
2021/01/04 01:43:53;;;;;;;35.77;21.73;;;1.30;99.90;;;;;;5051573;28;20193;-74
2021/01/04 01:46:34;;;;;;;35.87;20.17;;;1.20;99.90;;;;;;5053190;28;20173;-74
2021/01/04 01:49:34;;;;;;;33.77;20.37;;;1.20;99.90;;;;;;5054747;28;20174;-74
2021/01/04 01:52:09;;;;;;;28.63;19.87;;;1.30;99.90;;;;;;5054505;28;20193;-74
2021/01/04 01:54:54;;;;;;;38.33;21.73;;;1.30;99.90;;;;;;5054757;28;20172;-74
2021/01/04 01:57:28;;;;;;;38.03;21.23;;;1.20;99.90;;;;;;5036633;28;20178;-75
2021/01/04 02:00:20;;;;;;;36.63;22.00;;;1.10;99.90;;;;;;5054255;28;20179;-74
2021/01/04 02:03:06;;;;;;;36.50;20.87;;;1.20;99.90;;;;;;5051805;28;20319;-74
2021/01/04 02:06:22;;;;;;;35.90;21.57;;;1.20;99.90;;;;;;5054164;28;20174;-74
2021/01/04 02:08:57;;;;;;;33.20;19.40;;;1.20;99.90;;;;;;5054103;28;20170;-73
2021/01/04 02:11:32;;;;;;;32.30;20.40;;;1.30;99.90;;;;;;5054117;28;20197;-74
2021/01/04 02:14:05;;;;;;;37.33;20.27;;;1.30;99.90;;;;;;5053848;28;20555;-74
2021/01/04 02:16:40;;;;;;;36.47;21.50;;;1.30;99.90;;;;;;5054081;28;20229;-74
2021/01/04 02:19:37;;;;;;;37.90;21.03;;;1.30;99.90;;;;;;5052644;28;20255;-74
2021/01/04 02:22:08;;;;;;;32.53;20.27;;;1.30;99.90;;;;;;5053879;28;20566;-74
2021/01/04 02:24:34;;;;;;;31.87;19.70;;;1.30;99.90;;;;;;5052577;28;20182;-74
2021/01/04 02:27:22;;;;;;;31.50;19.93;;;1.30;99.90;;;;;;5053788;28;20236;-74
2021/01/04 02:29:48;;;;;;;29.93;19.43;;;1.30;99.90;;;;;;5053761;28;20679;-74
2021/01/04 02:32:14;;;;;;;32.97;20.50;;;1.40;99.90;;;;;;5053572;28;20201;-74
2021/01/04 02:34:49;;;;;;;31.27;19.37;;;1.40;99.90;;;;;;5053691;28;20175;-74
2021/01/04 02:37:17;;;;;;;34.70;20.87;;;1.40;99.90;;;;;;5053906;28;20177;-74
2021/01/04 02:39:46;;;;;;;33.47;19.90;;;1.40;99.90;;;;;;5053569;28;20572;-73
2021/01/04 02:42:17;;;;;;;33.87;20.00;;;1.30;99.90;;;;;;5053418;28;20208;-74
2021/01/04 02:44:45;;;;;;;29.67;19.83;;;1.40;99.90;;;;;;5053375;28;20185;-74
2021/01/04 02:47:16;;;;;;;32.30;20.47;;;1.30;99.90;;;;;;5053504;28;20235;-74
2021/01/04 02:50:20;;;;;;;29.53;19.73;;;1.40;99.90;;;;;;5051048;28;20674;-74
2021/01/04 02:53:00;;;;;;;31.13;19.20;;;1.40;99.90;;;;;;5042044;28;20169;-74
2021/01/04 02:55:35;;;;;;;33.83;19.40;;;1.30;99.90;;;;;;5046530;28;20170;-74
2021/01/04 02:58:16;;;;;;;32.40;19.97;;;1.40;99.90;;;;;;5032900;28;20243;-72
2021/01/04 03:00:49;;;;;;;30.40;18.90;;;1.30;99.90;;;;;;5034488;28;20217;-73
2021/01/04 03:03:16;;;;;;;32.90;19.37;;;1.40;99.90;;;;;;5049317;28;20178;-74
2021/01/04 03:05:43;;;;;;;28.40;18.97;;;1.40;99.90;;;;;;5052061;28;20169;-74
2021/01/04 03:08:09;;;;;;;30.07;19.53;;;1.40;99.90;;;;;;5051692;28;20651;-74
2021/01/04 03:10:38;;;;;;;30.40;19.93;;;1.40;99.90;;;;;;5053160;28;20198;-74
2021/01/04 03:13:46;;;;;;;33.97;20.20;;;1.40;99.90;;;;;;5052917;28;20640;-74
2021/01/04 03:16:38;;;;;;;33.33;20.43;;;1.40;99.90;;;;;;5051590;28;20675;-73
2021/01/04 03:19:09;;;;;;;32.93;20.57;;;1.40;99.90;;;;;;5052845;28;20170;-74
2021/01/04 03:21:35;;;;;;;30.33;19.20;;;1.40;99.90;;;;;;5052779;28;20243;-74
2021/01/04 03:24:04;;;;;;;30.63;18.80;;;1.40;99.90;;;;;;5052722;28;20191;-73
2021/01/04 03:26:44;;;;;;;33.00;19.93;;;1.40;99.90;;;;;;5052713;28;20260;-73
2021/01/04 03:29:10;;;;;;;33.80;19.53;;;1.40;99.90;;;;;;5052623;28;20648;-73
2021/01/04 03:31:35;;;;;;;32.43;19.73;;;1.40;99.90;;;;;;5051315;28;20200;-74
2021/01/04 03:34:01;;;;;;;33.33;19.10;;;1.40;99.90;;;;;;5052530;28;20626;-74
2021/01/04 03:36:27;;;;;;;32.67;20.70;;;1.40;99.90;;;;;;5051219;28;20656;-74
2021/01/04 03:38:53;;;;;;;31.93;19.87;;;1.40;99.90;;;;;;5052839;28;20177;-74
2021/01/04 03:41:19;;;;;;;31.80;19.77;;;1.40;99.90;;;;;;5051261;28;20209;-74
2021/01/04 03:43:46;;;;;;;32.60;19.00;;;1.40;99.90;;;;;;5048288;28;20189;-74
2021/01/04 03:46:12;;;;;;;32.90;19.67;;;1.30;99.90;;;;;;5050109;28;20181;-74
2021/01/04 03:48:38;;;;;;;28.10;18.70;;;1.30;99.90;;;;;;5052617;28;20174;-74
2021/01/04 03:51:04;;;;;;;29.77;19.03;;;1.30;99.90;;;;;;5051315;28;20201;-74
2021/01/04 03:53:30;;;;;;;31.40;19.30;;;1.30;99.90;;;;;;5052303;28;20170;-74
2021/01/04 03:55:55;;;;;;;29.00;18.07;;;1.30;99.90;;;;;;5041550;28;20177;-74
2021/01/04 03:58:21;;;;;;;30.40;19.00;;;1.40;99.90;;;;;;5052193;28;20661;-74
2021/01/04 04:00:47;;;;;;;29.97;19.33;;;1.40;99.90;;;;;;5051778;28;20220;-74
2021/01/04 04:03:14;;;;;;;31.20;19.50;;;1.40;99.90;;;;;;5051981;28;20687;-73
2021/01/04 04:05:40;;;;;;;30.27;19.37;;;1.30;99.90;;;;;;5052103;28;20663;-74
2021/01/04 04:08:06;;;;;;;28.33;18.47;;;1.30;99.90;;;;;;5052307;28;20189;-74
2021/01/04 04:10:32;;;;;;;33.43;20.23;;;1.30;99.90;;;;;;5052239;28;20200;-74
2021/01/04 04:12:58;;;;;;;28.80;18.67;;;1.30;99.90;;;;;;5052056;28;20174;-74
2021/01/04 04:15:24;;;;;;;29.10;18.40;;;1.20;99.90;;;;;;5052319;28;20170;-74
2021/01/04 04:17:50;;;;;;;33.93;19.57;;;1.20;99.90;;;;;;5050843;28;20224;-74
2021/01/04 04:20:22;;;;;;;30.27;19.40;;;1.20;99.90;;;;;;5051887;28;20842;-75
2021/01/04 04:22:55;;;;;;;28.50;17.80;;;1.20;99.90;;;;;;5052174;28;20174;-74
2021/01/04 04:25:23;;;;;;;29.30;18.87;;;1.30;99.90;;;;;;5052071;28;20238;-75
2021/01/04 04:27:54;;;;;;;29.50;19.07;;;1.30;99.90;;;;;;5051922;28;20577;-74
2021/01/04 04:30:21;;;;;;;30.87;18.70;;;1.40;99.90;;;;;;5051889;28;20240;-74
2021/01/04 04:32:58;;;;;;;25.93;17.13;;;1.40;99.90;;;;;;5051822;28;20256;-74
2021/01/04 04:35:25;;;;;;;28.43;17.80;;;1.40;99.90;;;;;;5050657;28;20227;-74
2021/01/04 04:37:51;;;;;;;24.93;17.50;;;1.40;99.90;;;;;;5051857;28;20636;-74
2021/01/04 04:40:21;;;;;;;31.33;19.27;;;1.40;99.90;;;;;;5051718;28;20250;-74
2021/01/04 04:42:47;;;;;;;31.60;19.33;;;1.40;99.90;;;;;;5051537;28;20257;-75
2021/01/04 04:45:19;;;;;;;31.00;17.57;;;1.40;99.90;;;;;;5051814;28;20193;-74
2021/01/04 04:48:00;;;;;;;31.43;19.60;;;1.40;99.90;;;;;;5048621;28;20773;-74
2021/01/04 04:50:59;;;;;;;27.57;18.17;;;1.50;99.90;;;;;;5052013;28;20197;-74
2021/01/04 04:53:28;;;;;;;31.47;18.30;;;1.50;99.90;;;;;;5020078;28;20717;-71
2021/01/04 04:56:29;;;;;;;29.80;19.13;;;1.50;99.90;;;;;;5042498;28;20183;-74
2021/01/04 04:59:35;;;;;;;28.87;18.87;;;1.40;99.90;;;;;;5042325;28;20230;-74
2021/01/04 05:02:33;;;;;;;29.40;18.73;;;1.40;99.90;;;;;;5051328;28;20209;-74
2021/01/04 05:05:29;;;;;;;28.63;18.20;;;1.40;99.90;;;;;;5026999;28;20362;-74
2021/01/04 05:08:20;;;;;;;29.87;18.80;;;1.40;99.90;;;;;;5051585;28;20644;-74
2021/01/04 05:10:51;;;;;;;30.63;19.40;;;1.40;99.90;;;;;;5051527;28;20201;-74
2021/01/04 05:13:26;;;;;;;28.63;18.60;;;1.40;99.90;;;;;;5056598;28;20169;-74
2021/01/04 05:16:17;;;;;;;31.57;19.93;;;1.40;99.90;;;;;;5065253;28;20178;-74
2021/01/04 05:19:13;;;;;;;33.63;20.43;;;1.40;99.90;;;;;;5065819;28;20193;-74
2021/01/04 05:21:56;;;;;;;34.83;20.00;;;1.30;99.90;;;;;;5055278;28;20225;-74
2021/01/04 05:24:52;;;;;;;33.83;20.10;;;1.30;99.90;;;;;;5054987;28;20629;-74
2021/01/04 05:27:33;;;;;;;31.73;19.37;;;1.30;99.90;;;;;;5055234;28;20204;-74
2021/01/04 05:30:22;;;;;;;30.70;19.47;;;1.30;99.90;;;;;;5054857;28;20667;-74
2021/01/04 05:33:05;;;;;;;33.50;20.30;;;1.40;99.90;;;;;;5053514;28;20265;-74
2021/01/04 05:35:34;;;;;;;34.93;21.60;;;1.30;99.90;;;;;;5054850;28;20643;-74
2021/01/04 05:38:06;;;;;;;30.67;20.00;;;1.30;99.90;;;;;;5054967;28;20181;-74
2021/01/04 05:41:10;;;;;;;31.47;20.27;;;1.30;99.90;;;;;;5055033;28;20281;-74
2021/01/04 05:43:44;;;;;;;30.63;19.10;;;1.40;99.90;;;;;;5046502;28;20248;-74
2021/01/04 05:46:41;;;;;;;30.73;18.97;;;1.40;99.90;;;;;;5051829;28;20536;-74
2021/01/04 05:49:11;;;;;;;30.43;19.27;;;1.50;99.90;;;;;;5054904;28;20544;-74
2021/01/04 05:51:39;;;;;;;30.60;18.53;;;1.50;99.90;;;;;;5054505;28;20194;-74
2021/01/04 05:54:06;;;;;;;28.77;18.60;;;1.50;99.90;;;;;;5054953;28;20194;-74
2021/01/04 05:56:32;;;;;;;28.23;18.63;;;1.50;99.90;;;;;;5044412;28;20166;-74
2021/01/04 05:59:14;;;;;;;29.77;19.07;;;1.50;99.90;;;;;;5054566;28;20264;-74
2021/01/04 06:01:44;;;;;;;28.87;19.23;;;1.50;99.90;;;;;;5040639;28;20696;-74
2021/01/04 06:04:24;;;;;;;31.43;19.83;;;1.60;99.90;;;;;;5045566;28;20563;-74
2021/01/04 06:06:57;;;;;;;32.43;20.03;;;1.50;99.90;;;;;;5052849;28;20580;-74
2021/01/04 06:09:25;;;;;;;34.03;20.80;;;1.50;99.90;;;;;;5054248;28;20170;-74
2021/01/04 06:12:02;;;;;;;29.40;18.97;;;1.50;99.90;;;;;;5048176;28;20217;-74
2021/01/04 06:14:31;;;;;;;30.20;18.23;;;1.60;99.90;;;;;;5052752;28;20181;-74
2021/01/04 06:16:58;;;;;;;30.40;19.40;;;1.60;99.90;;;;;;5042856;28;20564;-73
2021/01/04 06:19:25;;;;;;;32.60;19.77;;;1.70;99.90;;;;;;5040991;28;20196;-74
2021/01/04 06:21:54;;;;;;;32.13;21.10;;;1.60;99.90;;;;;;5038891;28;20679;-74
2021/01/04 06:24:32;;;;;;;31.30;20.60;;;1.60;99.90;;;;;;5053127;28;20983;-73
2021/01/04 06:27:07;;;;;;;35.87;20.60;;;1.60;99.90;;;;;;5040832;28;20227;-74
2021/01/04 06:29:36;;;;;;;31.13;19.77;;;1.50;99.90;;;;;;5053722;28;20245;-73
2021/01/04 06:32:05;;;;;;;32.00;20.47;;;1.50;99.90;;;;;;5053914;28;20194;-74
2021/01/04 06:34:37;;;;;;;35.73;21.33;;;1.50;99.90;;;;;;5053900;28;20249;-74
2021/01/04 06:37:12;;;;;;;34.77;21.13;;;1.50;99.90;;;;;;5053818;28;20170;-74
2021/01/04 06:39:40;;;;;;;29.90;19.73;;;1.50;99.90;;;;;;5053572;28;20174;-74
2021/01/04 06:42:17;;;;;;;31.83;19.40;;;1.50;99.90;;;;;;5032909;28;20676;-74
2021/01/04 06:45:08;;;;;;;34.17;20.50;;;1.50;99.90;;;;;;5034985;28;20190;-73
2021/01/04 06:47:40;;;;;;;31.23;19.77;;;1.60;99.90;;;;;;5034225;28;20170;-74
2021/01/04 06:50:12;;;;;;;29.13;19.53;;;1.60;99.90;;;;;;5032824;28;20641;-74
2021/01/04 06:52:38;;;;;;;34.67;21.60;;;1.60;99.90;;;;;;5048042;28;20175;-74
2021/01/04 06:55:37;;;;;;;32.87;21.33;;;1.60;99.90;;;;;;5031027;28;20697;-73
2021/01/04 06:58:28;;;;;;;32.63;20.33;;;1.50;99.90;;;;;;5036969;28;20216;-72
2021/01/04 07:01:15;;;;;;;32.27;19.73;;;1.60;99.90;;;;;;5033041;28;20283;-74
2021/01/04 07:04:09;;;;;;;33.33;20.83;;;1.60;99.90;;;;;;5032977;28;20206;-73
2021/01/04 07:07:08;;;;;;;31.70;19.67;;;1.60;99.90;;;;;;5037436;28;20650;-72
2021/01/04 07:10:07;;;;;;;30.87;19.37;;;1.60;99.90;;;;;;5053328;28;20177;-74
2021/01/04 07:12:52;;;;;;;33.87;20.20;;;1.60;99.90;;;;;;5045382;28;20262;-71
2021/01/04 07:15:20;;;;;;;29.10;19.73;;;1.60;99.90;;;;;;5034357;28;20174;-72
2021/01/04 07:17:58;;;;;;;28.27;18.43;;;1.70;99.90;;;;;;5039639;28;20193;-76
2021/01/04 07:20:39;;;;;;;31.10;19.77;;;1.70;99.90;;;;;;5049175;28;20208;-77
2021/01/04 07:23:12;;;;;;;33.23;19.70;;;1.70;99.90;;;;;;5048467;28;20173;-75
2021/01/04 07:26:08;;;;;;;31.23;19.47;;;1.60;99.90;;;;;;5051405;28;20181;-75
2021/01/04 07:29:05;;;;;;;32.47;20.77;;;1.60;99.90;;;;;;5052580;28;20178;-76
2021/01/04 07:31:39;;;;;;;31.03;20.03;;;1.60;99.90;;;;;;5052602;28;20736;-75
2021/01/04 07:34:29;;;;;;;36.93;22.50;;;1.60;99.90;;;;;;5052801;28;20546;-76
2021/01/04 07:37:07;;;;;;;37.00;21.00;;;1.60;99.90;;;;;;5050010;28;20189;-76
2021/01/04 07:39:40;;;;;;;35.17;21.53;;;1.60;99.90;;;;;;5052547;28;20599;-76
2021/01/04 07:42:38;;;;;;;44.70;25.07;;;1.60;99.90;;;;;;5052657;28;20217;-76
2021/01/04 07:45:19;;;;;;;48.60;24.93;;;1.60;99.90;;;;;;5052280;28;20193;-76
2021/01/04 07:48:22;;;;;;;36.00;21.13;;;1.60;99.90;;;;;;5052377;28;20227;-76
2021/01/04 07:51:12;;;;;;;42.47;21.90;;;1.60;99.90;;;;;;5050081;28;20239;-76
2021/01/04 07:54:12;;;;;;;40.00;22.70;;;1.60;99.90;;;;;;5052683;28;20174;-76
2021/01/04 07:56:59;;;;;;;37.37;21.93;;;1.60;99.90;;;;;;5041032;28;20231;-76
2021/01/04 07:59:40;;;;;;;34.70;21.13;;;1.60;99.90;;;;;;5052524;28;20902;-76
2021/01/04 08:02:15;;;;;;;37.13;22.97;;;1.70;99.90;;;;;;5052104;28;20234;-76
2021/01/04 08:04:52;;;;;;;38.70;23.73;;;1.70;99.90;;;;;;5052197;28;20193;-76
2021/01/04 08:07:52;;;;;;;41.53;25.37;;;1.70;99.90;;;;;;5052479;28;20235;-76
2021/01/04 08:10:55;;;;;;;32.83;19.83;;;1.70;99.90;;;;;;5052102;28;20201;-73
2021/01/04 08:13:59;;;;;;;34.77;19.40;;;1.70;99.90;;;;;;5052464;28;20178;-74
2021/01/04 08:16:31;;;;;;;32.07;20.17;;;1.70;99.90;;;;;;5052061;28;20234;-74
2021/01/04 08:19:01;;;;;;;38.33;20.27;;;1.70;99.90;;;;;;5052092;28;20173;-73
2021/01/04 08:21:33;;;;;;;34.40;20.03;;;1.70;99.90;;;;;;5051014;28;20556;-73
2021/01/04 08:24:14;;;;;;;31.40;19.93;;;1.70;99.90;;;;;;5050637;28;20213;-73
2021/01/04 08:27:15;;;;;;;30.60;20.43;;;1.70;99.90;;;;;;5052132;28;20714;-75
2021/01/04 08:29:54;;;;;;;32.80;19.00;;;1.70;99.90;;;;;;5052321;28;20267;-75
2021/01/04 08:32:42;;;;;;;32.33;19.33;;;1.70;99.90;;;;;;5051923;28;20196;-75
2021/01/04 08:35:29;;;;;;;29.20;18.43;;;1.80;99.90;;;;;;5052014;28;20185;-74
2021/01/04 08:37:58;;;;;;;32.80;18.97;;;1.80;99.90;;;;;;5051805;28;20308;-75
2021/01/04 08:40:30;;;;;;;32.57;19.07;;;1.70;99.90;;;;;;5052208;28;20283;-76
2021/01/04 08:43:04;;;;;;;28.97;18.77;;;1.80;99.90;;;;;;5051887;28;20231;-76
2021/01/04 08:45:36;;;;;;;33.20;19.13;;;1.80;99.90;;;;;;5051901;28;20177;-76
2021/01/04 08:48:22;;;;;;;29.10;17.40;;;1.80;99.90;;;;;;5052718;28;20192;-76
2021/01/04 08:51:13;;;;;;;29.77;18.17;;;1.80;99.90;;;;;;5054448;28;20202;-76
2021/01/04 08:53:39;;;;;;;29.20;18.27;;;1.80;99.90;;;;;;5054403;28;20320;-76
2021/01/04 08:56:27;;;;;;;29.17;17.80;;;1.80;99.90;;;;;;5045470;28;20179;-76
2021/01/04 08:59:06;;;;;;;26.13;17.30;;;1.70;99.90;;;;;;5055959;28;20264;-76
2021/01/04 09:01:33;;;;;;;26.57;16.87;;;1.80;99.90;;;;;;5053552;28;20213;-76
2021/01/04 09:04:11;;;;;;;29.20;17.33;;;1.80;99.90;;;;;;5055591;28;20217;-76
2021/01/04 09:06:42;;;;;;;32.80;18.37;;;1.80;99.90;;;;;;5055361;28;20196;-76
2021/01/04 09:09:33;;;;;;;29.43;18.23;;;1.80;99.90;;;;;;5055573;28;20196;-75
2021/01/04 09:12:04;;;;;;;29.50;17.40;;;1.90;99.90;;;;;;5055460;28;20192;-76
2021/01/04 09:14:44;;;;;;;28.90;17.77;;;2.00;99.90;;;;;;5055337;28;20177;-76
2021/01/04 09:17:20;;;;;;;21.63;14.80;;;1.80;99.90;;;;;;5055548;28;20180;-75
2021/01/04 09:19:50;;;;;;;45.53;26.07;;;1.80;99.90;;;;;;5055249;28;20169;-77
2021/01/04 09:22:21;;;;;;;24.77;15.90;;;1.80;99.90;;;;;;5055159;28;20285;-76
2021/01/04 09:24:47;;;;;;;163.77;55.67;;;1.80;99.90;;;;;;5055076;28;20721;-76
2021/01/04 09:27:29;;;;;;;64.23;30.10;;;1.80;99.90;;;;;;5055270;28;20672;-76
2021/01/04 09:30:00;;;;;;;82.63;34.50;;;1.80;99.90;;;;;;5055235;28;20219;-76
2021/01/04 09:32:37;;;;;;;17.20;13.00;;;1.80;99.90;;;;;;5054827;28;20193;-76
2021/01/04 09:35:05;;;;;;;18.90;12.67;;;1.80;99.90;;;;;;5053655;28;20175;-76
2021/01/04 09:37:38;;;;;;;21.70;13.30;;;1.80;99.90;;;;;;5055052;28;20209;-76
2021/01/04 09:40:09;;;;;;;19.50;12.20;;;1.80;99.90;;;;;;5054717;28;20177;-76
2021/01/04 09:42:35;;;;;;;25.83;17.27;;;1.80;99.90;;;;;;5052802;28;20548;-77
2021/01/04 09:45:16;;;;;;;44.10;27.53;;;1.80;99.90;;;;;;5042814;28;20200;-76
2021/01/04 09:47:47;;;;;;;23.57;16.37;;;1.80;99.90;;;;;;5055373;28;20201;-76
2021/01/04 09:50:41;;;;;;;20.83;13.37;;;1.80;99.90;;;;;;5054736;28;20266;-75
2021/01/04 09:53:24;;;;;;;20.47;13.50;;;1.80;99.90;;;;;;5054369;28;20209;-75
2021/01/04 09:55:56;;;;;;;21.87;13.63;;;1.70;99.90;;;;;;5045832;28;20174;-75
2021/01/04 09:58:22;;;;;;;18.77;12.57;;;1.60;99.90;;;;;;5053736;28;20180;-75
2021/01/04 10:00:47;;;;;;;18.53;13.00;;;1.60;99.90;;;;;;5053980;28;20295;-75
2021/01/04 10:03:22;;;;;;;20.43;13.63;;;1.60;99.90;;;;;;5054269;28;20632;-74
2021/01/04 10:05:49;;;;;;;20.93;14.27;;;1.60;99.90;;;;;;5054260;28;20181;-75
2021/01/04 10:08:22;;;;;;;19.80;13.40;;;1.60;99.90;;;;;;5055150;28;20182;-75
2021/01/04 10:11:00;;;;;;;19.13;13.17;;;1.60;99.90;;;;;;5054600;28;20619;-75
2021/01/04 10:13:28;;;;;;;20.23;12.27;;;1.60;99.90;;;;;;5054587;28;20178;-75
2021/01/04 10:15:57;;;;;;;21.30;12.87;;;1.60;99.90;;;;;;5054126;28;20658;-75
2021/01/04 10:18:34;;;;;;;17.53;13.17;;;1.60;99.90;;;;;;5054195;28;20166;-74
2021/01/04 10:21:01;;;;;;;23.57;12.87;;;1.60;99.90;;;;;;5053878;28;20208;-75
2021/01/04 10:23:40;;;;;;;17.37;12.43;;;1.60;99.90;;;;;;5053911;28;20296;-75
2021/01/04 10:26:09;;;;;;;20.87;13.73;;;1.60;99.90;;;;;;5053746;28;20591;-75
2021/01/04 10:28:37;;;;;;;18.53;12.97;;;1.60;99.90;;;;;;5054219;28;20505;-75
2021/01/04 10:31:14;;;;;;;18.83;13.67;;;1.60;99.90;;;;;;5053630;28;20193;-74
2021/01/04 10:33:40;;;;;;;21.60;13.70;;;1.60;99.90;;;;;;5053815;28;20252;-73
2021/01/04 10:36:15;;;;;;;20.73;13.97;;;1.60;99.90;;;;;;5053666;28;20201;-75
2021/01/04 10:38:56;;;;;;;17.77;12.80;;;1.60;99.90;;;;;;5053693;28;20177;-75
2021/01/04 10:41:26;;;;;;;21.57;13.77;;;1.60;99.90;;;;;;5051453;28;20201;-76
2021/01/04 10:44:23;;;;;;;22.03;13.53;;;1.60;99.90;;;;;;5052324;28;20247;-76
2021/01/04 10:47:29;;;;;;;19.60;13.30;;;1.60;99.90;;;;;;5030507;28;20652;-75
2021/01/04 10:50:11;;;;;;;63.30;24.77;;;1.60;99.90;;;;;;5027245;28;20180;-76
2021/01/04 10:52:37;;;;;;;21.30;14.30;;;1.50;99.90;;;;;;5041862;28;20190;-75
2021/01/04 10:55:03;;;;;;;64.07;25.23;;;1.60;99.90;;;;;;5052503;28;20174;-76
2021/01/04 10:57:41;;;;;;;130.20;47.03;;;1.60;99.90;;;;;;5044568;28;20174;-76
2021/01/04 11:00:16;;;;;;;122.20;43.20;;;1.60;99.90;;;;;;5053491;28;20182;-76
2021/01/04 11:02:47;;;;;;;21.13;14.17;;;1.70;99.90;;;;;;5053449;28;20245;-76
2021/01/04 11:05:19;;;;;;;30.83;17.93;;;1.70;99.90;;;;;;5053140;28;20194;-76
2021/01/04 11:07:47;;;;;;;41.23;21.67;;;1.60;99.90;;;;;;5053364;28;20263;-76
2021/01/04 11:10:25;;;;;;;40.60;23.87;;;1.70;99.90;;;;;;5052430;28;20648;-76
2021/01/04 11:12:54;;;;;;;29.87;18.57;;;1.60;99.90;;;;;;5046963;28;20212;-76
2021/01/04 11:15:26;;;;;;;17.60;12.80;;;1.70;99.90;;;;;;5052684;28;20220;-76
2021/01/04 11:18:00;;;;;;;23.63;14.27;;;1.70;99.90;;;;;;5053674;28;20177;-76
2021/01/04 11:20:26;;;;;;;19.27;13.70;;;1.60;99.90;;;;;;5053782;28;20276;-76
2021/01/04 11:23:12;;;;;;;16.67;12.77;;;1.70;99.90;;;;;;5055395;28;20178;-77
2021/01/04 11:25:40;;;;;;;21.30;14.43;;;1.70;99.90;;;;;;5052971;28;20656;-76
2021/01/04 11:28:06;;;;;;;72.00;36.60;;;1.70;99.90;;;;;;5052973;28;20243;-76
2021/01/04 11:30:32;;;;;;;34.97;19.97;;;1.80;99.90;;;;;;5052624;28;20668;-76
2021/01/04 11:32:59;;;;;;;31.67;17.70;;;1.80;99.90;;;;;;5052730;28;20188;-76
2021/01/04 11:35:26;;;;;;;65.50;31.27;;;1.80;99.90;;;;;;5052645;28;20579;-76
2021/01/04 11:37:52;;;;;;;28.83;18.27;;;1.80;99.90;;;;;;5052815;28;20181;-76
2021/01/04 11:40:19;;;;;;;30.37;19.37;;;1.80;99.90;;;;;;5052636;28;20201;-76
2021/01/04 11:42:46;;;;;;;14.87;11.93;;;1.80;99.90;;;;;;5044978;28;20680;-76
2021/01/04 11:45:15;;;;;;;19.20;13.63;;;1.70;99.90;;;;;;5052369;28;20197;-76
2021/01/04 11:47:42;;;;;;;19.30;12.87;;;1.60;99.90;;;;;;5052718;28;20169;-76
2021/01/04 11:50:08;;;;;;;15.27;11.47;;;1.60;99.90;;;;;;5052331;28;20201;-76
2021/01/04 11:52:36;;;;;;;14.43;12.23;;;1.60;99.90;;;;;;5052334;28;20181;-76
2021/01/04 11:55:04;;;;;;;14.87;11.20;;;1.60;99.90;;;;;;5050272;28;20216;-74
2021/01/04 11:57:30;;;;;;;15.10;11.60;;;1.60;99.90;;;;;;5044884;28;20188;-76
2021/01/04 11:59:56;;;;;;;15.67;12.37;;;1.60;99.90;;;;;;5052364;28;20217;-76
2021/01/04 12:02:21;;;;;;;15.83;12.40;;;1.60;99.90;;;;;;5052189;28;20675;-76
2021/01/04 12:04:47;;;;;;;17.57;13.00;;;1.60;99.90;;;;;;5052393;28;20243;-76
2021/01/04 12:07:14;;;;;;;16.27;11.83;;;1.60;99.90;;;;;;5052296;28;20170;-76
2021/01/04 12:09:40;;;;;;;17.13;12.43;;;1.70;99.90;;;;;;5052537;28;20204;-76
2021/01/04 12:12:09;;;;;;;16.00;12.40;;;1.70;99.90;;;;;;5052079;28;20676;-76
2021/01/04 12:14:35;;;;;;;16.73;12.83;;;1.70;99.90;;;;;;5050971;28;20182;-76
2021/01/04 12:17:04;;;;;;;14.87;12.07;;;1.70;99.90;;;;;;5052129;28;20181;-76
2021/01/04 12:19:30;;;;;;;16.87;13.17;;;1.70;99.90;;;;;;5052237;28;20174;-76
2021/01/04 12:22:10;;;;;;;17.37;12.67;;;1.80;99.90;;;;;;5052909;28;20228;-76
2021/01/04 12:24:36;;;;;;;20.93;12.10;;;1.70;99.90;;;;;;5056098;28;20229;-76
2021/01/04 12:27:03;;;;;;;17.57;12.83;;;1.60;99.90;;;;;;5055322;28;20181;-76
2021/01/04 12:29:29;;;;;;;16.13;12.40;;;1.60;99.90;;;;;;5056064;28;20170;-76
2021/01/04 12:31:55;;;;;;;14.83;12.47;;;1.70;99.90;;;;;;5056101;28;20541;-76
2021/01/04 12:34:20;;;;;;;17.03;12.97;;;1.70;99.90;;;;;;5056033;28;20174;-75
2021/01/04 12:36:46;;;;;;;16.10;12.53;;;1.70;99.90;;;;;;5056256;28;20177;-76
2021/01/04 12:39:13;;;;;;;14.90;12.47;;;1.60;99.90;;;;;;5056103;28;20178;-76
2021/01/04 12:41:40;;;;;;;15.27;12.07;;;1.60;99.90;;;;;;5055841;28;20198;-76
2021/01/04 12:44:08;;;;;;;17.03;12.50;;;1.60;99.90;;;;;;5056080;28;20233;-76
2021/01/04 12:46:40;;;;;;;15.87;12.47;;;1.50;99.90;;;;;;5055780;28;20702;-76
2021/01/04 12:49:06;;;;;;;14.87;12.20;;;1.50;99.90;;;;;;5055772;28;20170;-76
2021/01/04 12:51:32;;;;;;;15.93;12.10;;;1.50;99.90;;;;;;5054272;28;20185;-76
2021/01/04 12:53:58;;;;;;;18.37;13.63;;;1.50;99.90;;;;;;5055569;28;20181;-75
2021/01/04 12:56:24;;;;;;;16.37;12.57;;;1.50;99.90;;;;;;5045480;28;20166;-76
2021/01/04 12:58:50;;;;;;;16.17;12.50;;;1.40;99.90;;;;;;5055779;28;20176;-76
2021/01/04 13:01:17;;;;;;;49.50;24.63;;;1.40;99.90;;;;;;5054074;28;20290;-75
2021/01/04 13:03:44;;;;;;;102.43;42.70;;;1.40;99.90;;;;;;5055471;28;20193;-76
2021/01/04 13:06:18;;;;;;;41.90;23.97;;;1.40;99.90;;;;;;5055438;28;20173;-76
2021/01/04 13:08:43;;;;;;;20.33;14.33;;;1.40;99.90;;;;;;5050987;28;20239;-76
2021/01/04 13:11:09;;;;;;;45.37;24.87;;;1.40;99.90;;;;;;5055570;28;20608;-76
2021/01/04 13:13:35;;;;;;;47.60;26.03;;;1.40;99.90;;;;;;5055469;28;20206;-76
2021/01/04 13:16:02;;;;;;;90.23;39.10;;;1.40;99.90;;;;;;5053732;28;20206;-75
2021/01/04 13:18:27;;;;;;;63.13;28.60;;;1.40;99.90;;;;;;5055195;28;20173;-76
2021/01/04 13:20:53;;;;;;;21.83;14.53;;;1.50;99.90;;;;;;5055355;28;20201;-76
2021/01/04 13:23:19;;;;;;;24.57;15.57;;;1.40;99.90;;;;;;5055025;28;20198;-76